Time;durP1;ratioP1;P1;durP2;ratioP2;P2;SDS_P1;SDS_P2;PMS_P1;PMS_P2;Temp;Humidity;BMP_temperature;BMP_pressure;BME280_temperature;BME280_humidity;BME280_pressure;Samples;Min_cycle;Max_cycle;Signal;HPM_P1;HPM_P2
2021/09/22 00:00:12;;;;;;;7.10;4.93;;;8.80;1.00;;;;;;5033901;28;20443;-75
2021/09/22 00:02:43;;;;;;;9.80;5.70;;;8.80;1.00;;;;;;5017920;28;20439;-75
2021/09/22 00:05:19;;;;;;;39.03;17.43;;;8.80;1.00;;;;;;5033696;28;20421;-75
2021/09/22 00:07:54;;;;;;;;;;;8.80;1.00;;;;;;5014279;28;20423;-75
2021/09/22 00:10:21;;;;;;;;;;;8.80;1.00;;;;;;5014898;28;19952;-77
2021/09/22 00:12:49;;;;;;;;;;;8.80;1.00;;;;;;5016158;28;19910;-76
2021/09/22 00:15:19;;;;;;;;;;;8.70;1.00;;;;;;5034033;28;19908;-76
2021/09/22 00:17:45;;;;;;;;;;;8.70;1.00;;;;;;5034344;28;19912;-76
2021/09/22 00:23:14;;;;;;;;;;;8.70;1.00;;;;;;5033525;28;20005;-76
2021/09/22 00:25:42;;;;;;;;;;;8.70;1.00;;;;;;5034238;28;19944;-75
2021/09/22 00:28:18;;;;;;;;;;;8.70;1.00;;;;;;5035832;28;19992;-75
2021/09/22 00:30:48;;;;;;;;;;;8.60;1.00;;;;;;5037680;28;19944;-75
2021/09/22 00:36:18;;;;;;;;;;;8.60;1.00;;;;;;5017546;28;20013;-76
2021/09/22 00:38:44;;;;;;;;;;;8.60;1.00;;;;;;5022294;28;19917;-75
2021/09/22 00:41:10;;;;;;;11.03;6.27;;;8.50;1.00;;;;;;5026345;28;20426;-75
2021/09/22 00:43:49;;;;;;;8.30;5.70;;;8.60;1.00;;;;;;5036108;28;20181;-75
2021/09/22 00:46:31;;;;;;;8.30;5.80;;;8.70;1.00;;;;;;5037071;28;20395;-75
2021/09/22 00:49:01;;;;;;;9.30;5.20;;;8.70;1.00;;;;;;5036418;28;20406;-75
2021/09/22 00:51:30;;;;;;;;;;;8.60;1.00;;;;;;5021505;28;20491;-75
2021/09/22 00:53:56;;;;;;;9.15;6.35;;;8.60;1.00;;;;;;5017369;28;20493;-75
2021/09/22 00:56:22;;;;;;;9.07;6.20;;;8.60;1.00;;;;;;5019085;28;20603;-76
2021/09/22 00:58:55;;;;;;;9.53;5.80;;;8.60;1.00;;;;;;5033891;28;20273;-76
2021/09/22 01:01:47;;;;;;;12.50;6.17;;;8.60;1.00;;;;;;5031940;28;20415;-76
2021/09/22 01:04:25;;;;;;;9.60;6.40;;;8.60;1.00;;;;;;5037200;28;20758;-76
2021/09/22 01:06:51;;;;;;;12.60;5.80;;;8.60;1.00;;;;;;5036843;28;20394;-76
2021/09/22 01:09:31;;;;;;;10.10;6.07;;;8.60;1.00;;;;;;5035800;28;20415;-76
2021/09/22 01:11:57;;;;;;;8.27;5.73;;;;;;;;;;5036443;28;20618;-76
2021/09/22 01:14:24;;;;;;;11.23;5.67;;;8.60;1.00;;;;;;5036718;28;20490;-75
2021/09/22 01:17:07;;;;;;;11.97;5.53;;;8.50;1.00;;;;;;5036795;28;20445;-75
2021/09/22 01:19:37;;;;;;;10.87;6.37;;;8.50;1.00;;;;;;5036232;28;20466;-75
2021/09/22 01:22:24;;;;;;;11.20;6.03;;;8.50;1.00;;;;;;5017341;28;20415;-75
2021/09/22 01:24:53;;;;;;;10.83;5.60;;;8.50;1.00;;;;;;5030195;28;20419;-76
2021/09/22 01:27:25;;;;;;;14.23;6.50;;;8.40;1.00;;;;;;5035604;28;20399;-76
2021/09/22 01:30:07;;;;;;;8.80;5.90;;;8.40;1.00;;;;;;5016538;28;20485;-76
2021/09/22 01:33:18;;;;;;;14.33;6.17;;;8.40;1.00;;;;;;5016411;28;20400;-76
2021/09/22 01:35:49;;;;;;;11.10;7.30;;;8.40;1.00;;;;;;5016213;28;20396;-76
2021/09/22 01:38:24;;;;;;;11.33;5.93;;;8.40;1.00;;;;;;5024045;28;20431;-76
2021/09/22 01:44:25;;;;;;;13.80;6.33;;;8.30;1.00;;;;;;5035733;28;20418;-76
2021/09/22 01:46:55;;;;;;;11.93;6.20;;;8.30;1.00;;;;;;5034604;28;20806;-77
2021/09/22 01:49:25;;;;;;;15.23;6.53;;;8.30;1.00;;;;;;5035110;28;20866;-77
2021/09/22 01:51:56;;;;;;;13.13;6.23;;;8.30;1.00;;;;;;5035425;28;20442;-77
2021/09/22 01:54:37;;;;;;;10.90;6.27;;;8.30;1.00;;;;;;5024952;28;20559;-76
2021/09/22 01:57:09;;;;;;;12.03;6.30;;;8.30;1.00;;;;;;5026759;28;20521;-76
2021/09/22 01:59:54;;;;;;;15.33;6.03;;;8.30;1.00;;;;;;5027449;28;20506;-75
2021/09/22 02:02:25;;;;;;;10.20;5.93;;;8.30;1.00;;;;;;5035541;28;20401;-75
2021/09/22 02:04:51;;;;;;;13.50;6.10;;;8.20;1.00;;;;;;5034012;28;20949;-75
2021/09/22 02:07:17;;;;;;;8.90;5.40;;;8.20;1.00;;;;;;5028290;28;20411;-75
2021/09/22 02:10:07;;;;;;;11.63;5.33;;;8.20;1.00;;;;;;5023535;28;20177;-75
2021/09/22 02:12:43;;;;;;;10.70;5.67;;;8.20;1.00;;;;;;5016224;28;20427;-75
2021/09/22 02:15:48;;;;;;;12.73;6.63;;;8.20;1.00;;;;;;5015821;28;20400;-75
2021/09/22 02:18:19;;;;;;;8.93;5.90;;;8.10;1.00;;;;;;5015836;28;20458;-75
2021/09/22 02:21:01;;;;;;;9.60;6.20;;;8.20;1.00;;;;;;5021858;28;20428;-75
2021/09/22 02:23:27;;;;;;;12.70;6.70;;;8.20;1.00;;;;;;5015603;28;20401;-75
2021/09/22 02:25:55;;;;;;;8.90;5.97;;;8.10;1.00;;;;;;5015969;28;20396;-75
2021/09/22 02:28:31;;;;;;;11.67;6.20;;;8.10;1.00;;;;;;5033199;28;20502;-75
2021/09/22 02:30:57;;;;;;;8.73;5.93;;;8.10;1.00;;;;;;5018787;28;20424;-75
2021/09/22 02:33:25;;;;;;;9.30;5.33;;;8.10;1.00;;;;;;5015575;28;20380;-75
2021/09/22 02:35:55;;;;;;;10.67;5.87;;;8.10;1.00;;;;;;5015340;28;20388;-75
2021/09/22 02:38:37;;;;;;;12.67;6.00;;;8.00;1.00;;;;;;5017738;28;20495;-75
2021/09/22 02:41:07;;;;;;;10.70;6.00;;;8.00;1.00;;;;;;5021006;28;20950;-77
2021/09/22 02:43:33;;;;;;;11.33;6.40;;;8.00;1.00;;;;;;5035142;28;20403;-77
2021/09/22 02:46:01;;;;;;;15.10;7.70;;;8.00;1.00;;;;;;5034878;28;20403;-76
2021/09/22 02:49:00;;;;;;;13.60;6.10;;;8.10;1.00;;;;;;5034060;28;20912;-77
2021/09/22 02:51:31;;;;;;;11.60;6.30;;;8.10;1.00;;;;;;5017563;28;20419;-77
2021/09/22 02:54:13;;;;;;;13.60;5.90;;;8.10;1.00;;;;;;5015214;28;20495;-76
2021/09/22 02:56:49;;;;;;;7.53;5.10;;;8.10;1.00;;;;;;5020663;28;20416;-75
2021/09/22 02:59:31;;;;;;;18.60;7.30;;;7.90;1.00;;;;;;5021098;28;20509;-75
2021/09/22 03:01:57;;;;;;;9.30;6.73;;;7.90;1.00;;;;;;5033317;28;20443;-75
2021/09/22 03:04:25;;;;;;;7.40;5.50;;;7.90;1.00;;;;;;5034943;28;20458;-75
2021/09/22 03:07:18;;;;;;;13.40;6.83;;;7.90;1.00;;;;;;5034496;28;20268;-75
2021/09/22 03:09:44;;;;;;;8.30;5.60;;;7.80;1.00;;;;;;5033545;28;20439;-75
2021/09/22 03:12:10;;;;;;;9.80;6.90;;;7.80;1.00;;;;;;5015100;28;20447;-76
2021/09/22 03:14:49;;;;;;;9.60;6.87;;;7.80;1.00;;;;;;5014823;28;20161;-76
2021/09/22 03:17:15;;;;;;;9.27;6.57;;;7.70;1.00;;;;;;5014812;28;20161;-77
2021/09/22 03:19:41;;;;;;;10.57;6.70;;;;;;;;;;5021303;28;20553;-77
2021/09/22 03:22:07;;;;;;;8.63;5.57;;;7.70;1.00;;;;;;5034647;28;20164;-76
2021/09/22 03:24:33;;;;;;;12.30;5.53;;;7.60;1.00;;;;;;5034123;28;20399;-76
2021/09/22 03:26:58;;;;;;;10.83;7.17;;;7.70;1.00;;;;;;5034351;28;20475;-77
2021/09/22 03:29:24;;;;;;;7.87;5.40;;;7.60;1.00;;;;;;5033955;28;20311;-77
2021/09/22 03:32:18;;;;;;;11.27;5.90;;;7.60;1.00;;;;;;5016818;28;20233;-77
2021/09/22 03:34:49;;;;;;;7.43;5.83;;;7.60;1.00;;;;;;5014061;28;20240;-77
2021/09/22 03:37:19;;;;;;;11.77;6.63;;;7.50;1.00;;;;;;5012991;28;20404;-76
2021/09/22 03:39:49;;;;;;;10.97;6.50;;;7.50;1.00;;;;;;5020331;28;20958;-75
2021/09/22 03:42:19;;;;;;;12.07;7.30;;;7.50;1.00;;;;;;5034638;28;20444;-75
2021/09/22 03:44:55;;;;;;;17.63;7.50;;;7.50;1.00;;;;;;5033376;28;20484;-75
2021/09/22 03:47:31;;;;;;;10.67;7.00;;;7.40;1.00;;;;;;5019477;28;20721;-75
2021/09/22 03:50:01;;;;;;;10.13;6.70;;;7.40;1.00;;;;;;5021270;28;20506;-75
2021/09/22 03:52:27;;;;;;;14.03;7.17;;;7.40;1.00;;;;;;5033807;28;20939;-75
2021/09/22 03:55:01;;;;;;;10.53;7.00;;;7.40;1.00;;;;;;5025686;28;20424;-76
2021/09/22 03:57:27;;;;;;;12.50;7.10;;;7.40;1.00;;;;;;5024799;28;20181;-75
2021/09/22 03:59:55;;;;;;;9.53;6.40;;;7.40;1.00;;;;;;5024748;28;20516;-75
2021/09/22 04:02:37;;;;;;;11.90;7.27;;;;;;;;;;5035331;28;20247;-83
2021/09/22 04:05:03;;;;;;;10.33;7.00;;;7.30;1.00;;;;;;5023368;28;20451;-84
2021/09/22 04:07:43;;;;;;;12.23;7.10;;;7.30;1.00;;;;;;5017516;28;20408;-75
2021/09/22 04:10:13;;;;;;;15.90;7.40;;;7.30;1.00;;;;;;5029415;28;20457;-75
2021/09/22 04:12:49;;;;;;;16.03;7.50;;;7.30;1.00;;;;;;5038550;28;20601;-77
2021/09/22 04:15:19;;;;;;;8.77;5.97;;;7.30;1.00;;;;;;5022596;28;20426;-77
2021/09/22 04:17:49;;;;;;;9.57;7.03;;;7.20;1.00;;;;;;5017840;28;20507;-77
2021/09/22 04:20:19;;;;;;;14.73;6.93;;;7.20;1.00;;;;;;5028315;28;20804;-77
2021/09/22 04:22:49;;;;;;;8.70;6.57;;;7.20;1.00;;;;;;5017551;28;20388;-78
2021/09/22 04:25:19;;;;;;;12.30;6.87;;;7.20;1.00;;;;;;5017917;28;20406;-76
2021/09/22 04:27:49;;;;;;;13.17;7.30;;;7.20;1.00;;;;;;5018555;28;20420;-77
2021/09/22 04:30:36;;;;;;;10.30;7.10;;;7.20;1.00;;;;;;5032292;28;20919;-77
2021/09/22 04:33:07;;;;;;;11.17;7.50;;;7.20;1.00;;;;;;5036603;28;20426;-76
2021/09/22 04:35:43;;;;;;;13.90;8.33;;;7.20;1.00;;;;;;5037082;28;20434;-77
2021/09/22 04:38:19;;;;;;;11.53;7.73;;;7.20;1.00;;;;;;5036834;28;20422;-78
2021/09/22 04:40:55;;;;;;;10.73;6.70;;;7.20;1.00;;;;;;5034425;28;20415;-77
2021/09/22 04:43:21;;;;;;;10.13;7.17;;;7.20;1.00;;;;;;5017943;28;20395;-75
2021/09/22 04:45:49;;;;;;;9.17;7.03;;;7.20;1.00;;;;;;5016165;28;20814;-75
2021/09/22 04:48:25;;;;;;;12.33;6.40;;;7.20;1.00;;;;;;5017229;28;20161;-75
2021/09/22 04:50:51;;;;;;;11.50;7.20;;;7.20;1.00;;;;;;5030307;28;20502;-75
2021/09/22 04:53:37;;;;;;;8.97;6.77;;;7.30;1.00;;;;;;5019248;28;20439;-76
2021/09/22 04:56:15;;;;;;;16.37;7.20;;;7.30;1.00;;;;;;5027385;28;20438;-76
2021/09/22 04:58:49;;;;;;;11.70;7.53;;;;;;;;;;5030773;28;20512;-76
2021/09/22 05:01:25;;;;;;;13.10;7.50;;;7.30;1.00;;;;;;5033289;28;20426;-75
2021/09/22 05:04:01;;;;;;;13.03;8.30;;;7.30;1.00;;;;;;5036757;28;20492;-75
2021/09/22 05:06:37;;;;;;;14.00;7.97;;;7.30;1.00;;;;;;5035892;28;20505;-75
2021/09/22 05:09:13;;;;;;;15.17;6.93;;;7.30;1.00;;;;;;5036633;28;20395;-75
2021/09/22 05:12:00;;;;;;;16.13;7.57;;;7.30;1.00;;;;;;5035917;28;20451;-75
2021/09/22 05:14:31;;;;;;;20.73;8.27;;;7.40;1.00;;;;;;5036428;28;20404;-75
2021/09/22 05:17:07;;;;;;;26.67;7.10;;;7.40;1.00;;;;;;5036566;28;20396;-76
2021/09/22 05:19:33;;;;;;;15.10;8.30;;;7.30;1.00;;;;;;5016639;28;20517;-75
2021/09/22 05:22:01;;;;;;;12.00;7.10;;;7.40;1.00;;;;;;5025749;28;20855;-75
2021/09/22 05:24:27;;;;;;;11.20;6.80;;;7.40;1.00;;;;;;5036387;28;20183;-76
2021/09/22 05:27:10;;;;;;;14.30;5.93;;;7.40;1.00;;;;;;5036423;28;20878;-75
2021/09/22 05:29:37;;;;;;;10.73;5.27;;;7.40;1.00;;;;;;5036145;28;20175;-76
2021/09/22 05:32:07;;;;;;;12.83;6.13;;;7.40;1.00;;;;;;5035510;28;20418;-76
2021/09/22 05:34:54;;;;;;;10.37;6.83;;;7.40;1.00;;;;;;5035561;28;20415;-76
2021/09/22 05:37:42;;;;;;;12.50;6.47;;;7.40;1.00;;;;;;5036376;28;20383;-76
2021/09/22 05:40:19;;;;;;;17.40;6.40;;;7.40;1.00;;;;;;5035854;28;20447;-76
2021/09/22 05:43:30;;;;;;;12.40;7.20;;;7.50;1.00;;;;;;5035360;28;20419;-78
2021/09/22 05:46:01;;;;;;;15.03;7.53;;;7.50;1.00;;;;;;5021443;28;20428;-75
2021/09/22 05:48:27;;;;;;;13.20;6.27;;;7.50;1.00;;;;;;5018378;28;20427;-76
2021/09/22 05:51:18;;;;;;;11.50;6.27;;;7.60;1.00;;;;;;5035576;28;20769;-75
2021/09/22 05:53:49;;;;;;;12.10;7.27;;;7.60;1.00;;;;;;5034529;28;20439;-75
2021/09/22 05:56:15;;;;;;;11.70;6.73;;;7.70;1.00;;;;;;5025612;28;20804;-75
2021/09/22 05:58:43;;;;;;;15.73;5.97;;;7.70;1.00;;;;;;5030166;28;20550;-76
2021/09/22 06:01:08;;;;;;;11.47;6.33;;;7.80;1.00;;;;;;5029276;28;20419;-76
2021/09/22 06:03:35;;;;;;;17.77;7.93;;;;;;;;;;5016418;28;20403;-77
2021/09/22 06:06:01;;;;;;;16.20;6.30;;;7.80;1.00;;;;;;5034467;28;20686;-77
2021/09/22 06:08:27;;;;;;;9.60;6.00;;;7.80;1.00;;;;;;5034722;28;20399;-77
2021/09/22 06:10:52;;;;;;;11.63;6.90;;;7.90;1.00;;;;;;5034658;28;20180;-77
2021/09/22 06:13:18;;;;;;;10.20;5.80;;;8.00;1.00;;;;;;5034155;28;20188;-81
2021/09/22 06:15:43;;;;;;;15.97;7.07;;;8.00;1.00;;;;;;5034173;28;20184;-77
2021/09/22 06:18:09;;;;;;;11.97;6.60;;;;;;;;;;5033753;28;20184;-77
2021/09/22 06:20:35;;;;;;;10.60;6.27;;;8.10;1.00;;;;;;5033642;28;20651;-78
2021/09/22 06:23:01;;;;;;;9.73;5.43;;;8.20;1.00;;;;;;5033420;28;20427;-77
2021/09/22 06:25:27;;;;;;;12.00;6.60;;;8.30;1.00;;;;;;5032822;28;20427;-76
2021/09/22 06:27:53;;;;;;;10.60;6.23;;;;;;;;;;5034121;28;20251;-76
2021/09/22 06:30:20;;;;;;;13.43;6.93;;;8.40;1.00;;;;;;5024272;28;20185;-76
2021/09/22 06:32:45;;;;;;;8.63;5.80;;;8.50;1.00;;;;;;5026997;28;20483;-76
2021/09/22 06:35:11;;;;;;;11.50;6.20;;;8.60;1.00;;;;;;5024669;28;20435;-75
2021/09/22 06:37:37;;;;;;;10.80;5.70;;;8.60;1.00;;;;;;5030765;28;20227;-75
2021/09/22 06:40:04;;;;;;;10.63;6.43;;;8.60;1.00;;;;;;5029995;28;20458;-76
2021/09/22 06:42:30;;;;;;;12.80;5.57;;;8.80;1.00;;;;;;5016091;28;20165;-76
2021/09/22 06:44:56;;;;;;;10.83;6.37;;;9.00;1.00;;;;;;5014396;28;20926;-75
2021/09/22 06:47:22;;;;;;;10.53;6.53;;;;;;;;;;5024115;28;20435;-75
2021/09/22 06:49:48;;;;;;;12.03;6.47;;;;;;;;;;5033849;28;20167;-75
2021/09/22 06:52:14;;;;;;;11.27;6.13;;;9.30;1.00;;;;;;5032505;28;20586;-75
2021/09/22 06:54:39;;;;;;;11.57;5.63;;;9.30;1.00;;;;;;5013991;28;20495;-75
2021/09/22 06:57:06;;;;;;;18.30;6.80;;;9.40;1.00;;;;;;5013900;28;20304;-75
2021/09/22 06:59:31;;;;;;;9.77;6.27;;;9.60;1.00;;;;;;5019608;28;20275;-76
2021/09/22 07:01:57;;;;;;;11.20;5.97;;;;;;;;;;5032650;28;20849;-76
2021/09/22 07:04:23;;;;;;;9.97;5.77;;;9.80;1.00;;;;;;5033235;28;20628;-76
2021/09/22 07:06:48;;;;;;;12.30;6.80;;;10.00;1.00;;;;;;5031959;28;20577;-76
2021/09/22 07:09:15;;;;;;;10.97;6.10;;;;;;;;;;5033012;28;20188;-76
2021/09/22 07:11:40;;;;;;;12.70;7.37;;;10.40;1.00;;;;;;5030011;28;20659;-76
2021/09/22 07:14:06;;;;;;;12.50;6.73;;;;;;;;;;5026601;28;20423;-76
2021/09/22 07:16:32;;;;;;;14.97;8.33;;;10.70;1.00;;;;;;5032304;28;20176;-76
2021/09/22 07:18:58;;;;;;;9.07;6.87;;;10.90;1.00;;;;;;5032361;28;20466;-76
2021/09/22 07:21:25;;;;;;;12.43;7.87;;;11.00;1.00;;;;;;5031683;28;20690;-76
2021/09/22 07:23:51;;;;;;;11.53;6.80;;;11.20;1.00;;;;;;5031536;28;20498;-76
2021/09/22 07:26:17;;;;;;;13.30;7.70;;;11.40;1.00;;;;;;5032198;28;20515;-76
2021/09/22 07:28:43;;;;;;;14.83;7.20;;;11.50;1.00;;;;;;5032199;28;20196;-76
2021/09/22 07:31:09;;;;;;;13.63;7.73;;;11.70;1.00;;;;;;5026897;28;20690;-76
2021/09/22 07:33:36;;;;;;;11.63;7.80;;;11.80;1.00;;;;;;5031044;28;20522;-76
2021/09/22 07:36:04;;;;;;;11.57;7.20;;;11.90;1.00;;;;;;5029992;28;20233;-76
2021/09/22 07:38:31;;;;;;;15.90;8.20;;;12.00;1.00;;;;;;5031728;28;20471;-76
2021/09/22 07:40:57;;;;;;;17.67;8.00;;;12.10;1.00;;;;;;5030828;28;20423;-76
2021/09/22 07:43:24;;;;;;;11.30;7.90;;;12.30;1.00;;;;;;5032961;28;20748;-75
2021/09/22 07:45:50;;;;;;;12.27;7.90;;;;;;;;;;5031125;28;20460;-77
2021/09/22 07:48:15;;;;;;;13.23;7.90;;;12.30;1.00;;;;;;5029028;28;20927;-76
2021/09/22 07:50:42;;;;;;;12.13;7.07;;;12.50;1.00;;;;;;5013170;28;20423;-76
2021/09/22 07:53:08;;;;;;;14.60;7.20;;;12.70;1.00;;;;;;5031752;28;20188;-77
2021/09/22 07:55:34;;;;;;;15.00;7.60;;;12.80;1.00;;;;;;5021232;28;20605;-77
2021/09/22 07:57:59;;;;;;;12.57;7.33;;;12.80;1.00;;;;;;5014158;28;20864;-76
2021/09/22 08:00:25;;;;;;;26.53;8.23;;;13.00;1.00;;;;;;5028490;28;20516;-76
2021/09/22 08:02:53;;;;;;;10.00;6.30;;;13.00;1.00;;;;;;5026814;28;20189;-76
2021/09/22 08:05:19;;;;;;;12.27;7.20;;;14.70;1.00;;;;;;5029900;28;20164;-76
2021/09/22 08:07:46;;;;;;;9.60;6.60;;;;;;;;;;5032763;28;20418;-76
2021/09/22 08:10:13;;;;;;;14.07;6.57;;;13.20;1.00;;;;;;5032229;28;20474;-76
2021/09/22 08:12:38;;;;;;;11.53;6.50;;;13.20;1.00;;;;;;5028978;28;20471;-76
2021/09/22 08:15:04;;;;;;;10.93;7.47;;;13.30;1.00;;;;;;5033036;28;20474;-76
2021/09/22 08:17:30;;;;;;;10.63;6.77;;;13.30;1.00;;;;;;5032652;28;20560;-76
2021/09/22 08:19:56;;;;;;;12.00;6.80;;;13.40;1.00;;;;;;5032591;28;20472;-76
2021/09/22 08:22:21;;;;;;;11.73;7.13;;;13.50;1.00;;;;;;5032796;28;20160;-76
2021/09/22 08:24:47;;;;;;;10.17;6.23;;;13.50;1.00;;;;;;5032584;28;20203;-76
2021/09/22 08:27:13;;;;;;;8.80;6.47;;;13.60;1.00;;;;;;5032241;28;20220;-76
2021/09/22 08:29:39;;;;;;;9.70;6.67;;;13.80;1.00;;;;;;5032929;28;20557;-76
2021/09/22 08:32:05;;;;;;;12.70;7.27;;;13.80;1.00;;;;;;5032645;28;20400;-76
2021/09/22 08:34:32;;;;;;;12.73;6.67;;;14.00;1.00;;;;;;5032389;28;20374;-76
2021/09/22 08:36:58;;;;;;;11.73;6.20;;;14.20;1.00;;;;;;5032596;28;20389;-76
2021/09/22 08:39:23;;;;;;;19.63;7.30;;;14.20;1.00;;;;;;5032450;28;20421;-76
2021/09/22 08:41:51;;;;;;;11.80;7.23;;;14.40;1.00;;;;;;5031664;28;20401;-76
2021/09/22 08:44:17;;;;;;;19.80;7.17;;;14.60;1.00;;;;;;5032981;28;20187;-76
2021/09/22 08:46:44;;;;;;;11.00;7.13;;;14.80;1.00;;;;;;5026820;28;20415;-76
2021/09/22 08:49:11;;;;;;;12.60;8.23;;;14.80;1.00;;;;;;5015192;28;20745;-76
2021/09/22 08:51:37;;;;;;;12.40;7.67;;;15.10;1.00;;;;;;5022776;28;20819;-76
2021/09/22 08:54:04;;;;;;;12.03;7.13;;;15.20;1.00;;;;;;5035973;28;20378;-76
2021/09/22 08:56:30;;;;;;;29.63;8.47;;;15.50;1.00;;;;;;5036210;28;20403;-76
2021/09/22 08:58:56;;;;;;;16.27;8.00;;;15.50;1.00;;;;;;5036039;28;20971;-76
2021/09/22 09:01:26;;;;;;;17.83;9.80;;;15.60;1.00;;;;;;5035683;28;20259;-76
2021/09/22 09:03:52;;;;;;;19.20;8.73;;;15.70;1.00;;;;;;5035795;28;20377;-76
2021/09/22 09:06:33;;;;;;;18.60;8.70;;;15.70;1.00;;;;;;5035988;28;20399;-76
2021/09/22 09:09:00;;;;;;;18.53;8.73;;;15.70;1.00;;;;;;5035934;28;20377;-76
2021/09/22 09:11:34;;;;;;;15.23;8.60;;;15.70;1.00;;;;;;5035407;28;20891;-76
2021/09/22 09:14:02;;;;;;;25.50;9.57;;;15.80;1.00;;;;;;5035155;28;20412;-76
2021/09/22 09:16:46;;;;;;;15.40;8.90;;;15.80;1.00;;;;;;5035253;28;20386;-76
2021/09/22 09:19:21;;;;;;;19.07;8.00;;;15.80;1.00;;;;;;5035386;28;20445;-76
2021/09/22 09:22:09;;;;;;;14.57;8.87;;;15.90;1.00;;;;;;5035376;28;20423;-76
2021/09/22 09:24:46;;;;;;;18.10;8.97;;;16.10;1.00;;;;;;5035488;28;20503;-76
2021/09/22 09:27:24;;;;;;;15.43;8.57;;;16.30;1.00;;;;;;5035464;28;20392;-76
2021/09/22 09:29:53;;;;;;;16.00;9.17;;;16.30;1.00;;;;;;5034435;28;20427;-76
2021/09/22 09:32:29;;;;;;;14.87;8.70;;;16.50;1.00;;;;;;5035486;28;20461;-76
2021/09/22 09:35:16;;;;;;;26.87;9.40;;;16.60;1.00;;;;;;5028850;28;20420;-76
2021/09/22 09:37:42;;;;;;;13.40;8.10;;;16.90;1.00;;;;;;5015389;28;20466;-76
2021/09/22 09:40:20;;;;;;;12.40;9.27;;;16.90;1.00;;;;;;5015101;28;20514;-76
2021/09/22 09:42:47;;;;;;;14.70;9.20;;;17.00;1.00;;;;;;5014059;28;20633;-76
2021/09/22 09:45:17;;;;;;;13.50;8.63;;;17.10;1.00;;;;;;5025691;28;20413;-76
2021/09/22 09:47:43;;;;;;;13.20;8.60;;;17.30;1.00;;;;;;5034830;28;20435;-76
2021/09/22 09:50:20;;;;;;;21.20;8.00;;;17.60;1.00;;;;;;5035006;28;20402;-76
2021/09/22 09:52:54;;;;;;;22.40;7.43;;;17.80;1.00;;;;;;5035243;28;20177;-76
2021/09/22 09:55:23;;;;;;;12.37;7.20;;;17.90;1.00;;;;;;5034833;28;20870;-76
2021/09/22 09:57:49;;;;;;;23.67;8.90;;;;;;;;;;5034800;28;20409;-76
2021/09/22 10:00:42;;;;;;;15.33;7.70;;;18.10;1.00;;;;;;5033426;28;20557;-77
2021/09/22 10:03:13;;;;;;;31.27;7.23;;;18.30;1.00;;;;;;5034451;28;20944;-77
2021/09/22 10:05:39;;;;;;;12.40;7.40;;;18.50;1.00;;;;;;5034577;28;20431;-77
2021/09/22 10:08:05;;;;;;;17.50;7.97;;;18.60;1.00;;;;;;5034525;28;20521;-77
2021/09/22 10:10:31;;;;;;;12.53;7.13;;;18.60;1.00;;;;;;5034476;28;20406;-76
2021/09/22 10:12:57;;;;;;;13.93;7.70;;;18.70;1.00;;;;;;5034459;28;20430;-76
2021/09/22 10:15:24;;;;;;;11.60;7.40;;;18.70;1.00;;;;;;5034715;28;20459;-76
2021/09/22 10:17:52;;;;;;;12.90;6.50;;;18.70;1.00;;;;;;5034810;28;20384;-76
2021/09/22 10:20:17;;;;;;;12.70;7.13;;;18.80;1.00;;;;;;5034305;28;20470;-76
2021/09/22 10:22:43;;;;;;;10.20;7.10;;;18.90;1.00;;;;;;5034340;28;20409;-76
2021/09/22 10:25:10;;;;;;;18.90;7.33;;;18.90;1.00;;;;;;5034278;28;20330;-76
2021/09/22 10:27:37;;;;;;;21.43;7.40;;;18.90;1.00;;;;;;5034162;28;20557;-76
2021/09/22 10:30:06;;;;;;;13.53;6.77;;;18.90;1.00;;;;;;5034509;28;20413;-76
2021/09/22 10:32:43;;;;;;;16.87;7.10;;;18.90;1.00;;;;;;5034327;28;20446;-76
2021/09/22 10:35:24;;;;;;;20.70;7.30;;;18.80;1.00;;;;;;5033871;28;20928;-76
2021/09/22 10:37:50;;;;;;;14.00;6.70;;;18.70;1.00;;;;;;5033908;28;20877;-76
2021/09/22 10:40:31;;;;;;;11.07;6.50;;;18.90;1.00;;;;;;5033139;28;20468;-76
2021/09/22 10:43:16;;;;;;;13.43;7.63;;;18.90;1.00;;;;;;5033928;28;20468;-76
2021/09/22 10:45:46;;;;;;;24.60;7.03;;;18.90;1.00;;;;;;5034097;28;20415;-76
2021/09/22 10:48:21;;;;;;;8.40;4.77;;;19.00;1.00;;;;;;5033247;28;20897;-77
2021/09/22 10:51:02;;;;;;;13.60;5.70;;;19.20;1.00;;;;;;5029184;28;20449;-76
2021/09/22 10:53:47;;;;;;;12.10;6.37;;;19.20;1.00;;;;;;5016964;28;20449;-77
2021/09/22 10:56:24;;;;;;;7.20;5.53;;;19.30;1.00;;;;;;5032004;28;20401;-76
2021/09/22 10:59:02;;;;;;;12.73;6.27;;;19.40;1.00;;;;;;5033411;28;20480;-76
2021/09/22 11:01:39;;;;;;;10.20;4.90;;;19.30;1.00;;;;;;5034324;28;20484;-76
2021/09/22 11:04:15;;;;;;;8.47;5.70;;;19.40;1.00;;;;;;5033364;28;20426;-76
2021/09/22 11:06:57;;;;;;;6.63;4.50;;;19.50;1.00;;;;;;5032393;28;20438;-76
2021/09/22 11:09:25;;;;;;;14.33;6.40;;;19.50;1.00;;;;;;5022228;28;20417;-76
2021/09/22 11:12:03;;;;;;;10.63;5.37;;;19.40;1.00;;;;;;5014288;28;20510;-76
2021/09/22 11:14:59;;;;;;;23.77;6.33;;;19.30;1.00;;;;;;5030486;28;20422;-76
2021/09/22 11:17:37;;;;;;;15.30;7.30;;;;;;;;;;5032950;28;20414;-76
2021/09/22 11:20:05;;;;;;;12.90;7.43;;;19.30;1.00;;;;;;5050187;28;20827;-77
2021/09/22 11:22:43;;;;;;;14.63;7.10;;;19.30;1.00;;;;;;5051878;28;20479;-76
2021/09/22 11:25:09;;;;;;;28.83;8.00;;;19.40;1.00;;;;;;5051985;28;20402;-76
2021/09/22 11:27:37;;;;;;;10.03;6.20;;;19.50;1.00;;;;;;5051619;28;20821;-76
2021/09/22 11:30:13;;;;;;;12.37;6.83;;;19.60;1.00;;;;;;5051219;28;20509;-76
2021/09/22 11:32:49;;;;;;;12.33;5.80;;;19.70;1.00;;;;;;5052061;28;20428;-76
2021/09/22 11:35:21;;;;;;;11.27;5.53;;;19.70;1.00;;;;;;5050911;28;20425;-76
2021/09/22 11:37:52;;;;;;;10.80;5.63;;;19.80;1.00;;;;;;5051694;28;20824;-76
2021/09/22 11:40:48;;;;;;;9.33;5.10;;;;;;;;;;5051118;28;20991;-76
2021/09/22 11:43:19;;;;;;;10.73;6.10;;;19.90;1.00;;;;;;5050299;28;20464;-76
2021/09/22 11:45:51;;;;;;;9.07;6.20;;;19.90;1.00;;;;;;5031492;28;20448;-76
2021/09/22 11:48:38;;;;;;;7.50;5.00;;;19.90;1.00;;;;;;5033173;28;20782;-76
2021/09/22 11:51:11;;;;;;;8.20;5.40;;;20.00;1.00;;;;;;5032831;28;20423;-77
2021/09/22 11:54:03;;;;;;;9.70;4.80;;;;;;;;;;5033502;28;20438;-77
2021/09/22 11:56:31;;;;;;;14.33;5.73;;;20.00;1.00;;;;;;5031699;28;20412;-77
2021/09/22 11:58:57;;;;;;;15.50;6.63;;;20.00;1.00;;;;;;5032373;28;20425;-76
2021/09/22 12:01:23;;;;;;;10.17;6.07;;;20.00;1.00;;;;;;5032698;28;20412;-76
2021/09/22 12:03:53;;;;;;;13.60;5.60;;;20.10;1.00;;;;;;5033098;28;20612;-76
2021/09/22 12:06:20;;;;;;;34.07;5.77;;;20.20;1.00;;;;;;5027321;28;20466;-76
2021/09/22 12:08:50;;;;;;;6.33;4.83;;;20.10;1.00;;;;;;5029365;28;20518;-76
2021/09/22 12:11:18;;;;;;;12.90;6.07;;;20.20;1.00;;;;;;5029801;28;20973;-77
2021/09/22 12:13:46;;;;;;;11.27;6.03;;;20.30;1.00;;;;;;5032836;28;20470;-76
2021/09/22 12:16:12;;;;;;;8.33;5.37;;;20.20;1.00;;;;;;5031319;28;20702;-76
2021/09/22 12:18:40;;;;;;;11.77;5.40;;;20.10;1.00;;;;;;5013118;28;20498;-76
2021/09/22 12:21:06;;;;;;;10.57;5.33;;;20.30;1.00;;;;;;5012727;28;20471;-76
2021/09/22 12:23:34;;;;;;;17.73;5.20;;;20.40;1.00;;;;;;5024955;28;20419;-76
2021/09/22 12:26:26;;;;;;;8.63;5.30;;;20.70;1.00;;;;;;5036530;28;20500;-76
2021/09/22 12:29:10;;;;;;;12.63;5.50;;;20.70;1.00;;;;;;5035316;28;20515;-77
2021/09/22 12:31:42;;;;;;;11.73;6.10;;;20.80;1.00;;;;;;5036599;28;20371;-76
2021/09/22 12:34:19;;;;;;;13.20;5.67;;;20.90;1.00;;;;;;5036543;28;20424;-76
2021/09/22 12:36:46;;;;;;;9.13;4.67;;;;;;;;;;5036091;28;20474;-76
2021/09/22 12:39:17;;;;;;;8.03;4.93;;;20.90;1.00;;;;;;5036196;28;20852;-76
2021/09/22 12:42:07;;;;;;;14.50;6.73;;;21.00;1.00;;;;;;5036024;28;20411;-77
2021/09/22 12:44:56;;;;;;;12.13;5.53;;;21.10;1.00;;;;;;5035912;28;20443;-77
2021/09/22 12:47:23;;;;;;;8.90;6.13;;;21.20;1.00;;;;;;5036027;28;20441;-77
2021/09/22 12:50:09;;;;;;;10.40;5.53;;;21.10;1.00;;;;;;5036103;28;20471;-76
2021/09/22 12:52:35;;;;;;;14.83;5.50;;;21.20;1.00;;;;;;5035894;28;20433;-76
2021/09/22 12:55:21;;;;;;;11.67;4.60;;;21.20;1.00;;;;;;5016234;28;20759;-76
2021/09/22 12:57:53;;;;;;;9.53;5.83;;;21.20;1.00;;;;;;5016266;28;20192;-76
2021/09/22 13:00:35;;;;;;;8.60;4.97;;;21.20;1.00;;;;;;5028389;28;21028;-76
2021/09/22 13:03:24;;;;;;;6.13;3.97;;;21.20;1.00;;;;;;5035774;28;20413;-76
2021/09/22 13:05:54;;;;;;;9.33;4.47;;;21.20;1.00;;;;;;5035542;28;20935;-76
2021/09/22 13:08:22;;;;;;;9.10;4.77;;;21.30;1.00;;;;;;5036079;28;21026;-76
2021/09/22 13:11:03;;;;;;;7.77;4.53;;;21.30;1.00;;;;;;5033596;28;20440;-76
2021/09/22 13:13:37;;;;;;;10.03;4.33;;;21.30;1.00;;;;;;5035643;28;20416;-76
2021/09/22 13:16:19;;;;;;;7.27;4.50;;;21.50;1.00;;;;;;5035602;28;20430;-76
2021/09/22 13:18:46;;;;;;;6.60;4.23;;;21.50;1.00;;;;;;5035820;28;20465;-76
2021/09/22 13:21:12;;;;;;;9.73;4.40;;;21.70;1.00;;;;;;5035485;28;20463;-76
2021/09/22 13:23:47;;;;;;;9.83;4.27;;;21.60;1.00;;;;;;5035493;28;20422;-76
2021/09/22 13:26:13;;;;;;;8.70;3.80;;;21.70;1.00;;;;;;5035452;28;20403;-76
2021/09/22 13:28:40;;;;;;;5.37;4.10;;;21.60;1.00;;;;;;5035430;28;20545;-76
2021/09/22 13:31:07;;;;;;;6.77;4.10;;;21.60;1.00;;;;;;5035497;28;20417;-76
2021/09/22 13:33:40;;;;;;;11.00;4.43;;;21.50;1.00;;;;;;5035676;28;20397;-76
2021/09/22 13:36:07;;;;;;;6.70;4.47;;;21.40;1.00;;;;;;5035072;28;20420;-76